Time;durP1;ratioP1;P1;durP2;ratioP2;P2;SDS_P1;SDS_P2;PMS_P1;PMS_P2;Temp;Humidity;BMP_temperature;BMP_pressure;BME280_temperature;BME280_humidity;BME280_pressure;Samples;Min_cycle;Max_cycle;Signal;HPM_P1;HPM_P2
2021/03/31 00:07:17;;;;;;;33.85;20.60;;;;;;;9.63;100.00;101399.55;10423127;83;98929;-81
2021/03/31 00:22:22;;;;;;;41.98;20.08;;;;;;;9.33;100.00;101387.52;10404035;82;98878;-81
2021/03/31 00:37:26;;;;;;;31.90;15.98;;;;;;;9.88;100.00;101402.30;10444127;83;98826;-82
2021/03/31 00:52:31;;;;;;;27.97;15.53;;;;;;;10.10;100.00;101393.34;10308139;84;98892;-82
2021/03/31 01:07:36;;;;;;;28.87;14.58;;;;;;;10.11;100.00;101381.91;10292393;83;99169;-82
2021/03/31 01:23:41;;;;;;;105.43;51.70;;;;;;;9.95;100.00;101382.58;10415903;83;99068;-82
2021/03/31 01:38:51;;;;;;;30.85;17.45;;;;;;;9.00;100.00;101373.54;10416694;82;98967;-79
2021/03/31 01:53:57;;;;;;;47.23;23.95;;;;;;;8.59;100.00;101376.52;10458686;82;98807;-80
2021/03/31 02:09:04;;;;;;;29.85;16.55;;;;;;;8.41;100.00;101377.15;10381104;83;99158;-80
2021/03/31 02:24:13;;;;;;;33.33;16.02;;;;;;;8.05;100.00;101369.32;10388914;83;99082;-81
2021/03/31 02:39:20;;;;;;;32.15;16.40;;;;;;;7.74;100.00;101358.55;10383066;81;99603;-81
2021/03/31 02:54:27;;;;;;;33.50;17.67;;;;;;;7.65;100.00;101353.38;10338056;83;98816;-82
2021/03/31 03:09:31;;;;;;;53.33;25.35;;;;;;;7.55;100.00;101338.73;10375489;83;98860;-81
2021/03/31 03:24:37;;;;;;;118.70;49.35;;;;;;;7.33;100.00;101343.88;10478875;83;98887;-84
2021/03/31 03:39:44;;;;;;;50.65;25.95;;;;;;;7.19;100.00;101338.61;10386677;83;99046;-80
2021/03/31 03:54:53;;;;;;;33.20;20.45;;;;;;;7.23;100.00;101332.75;10412324;83;98835;-81
2021/03/31 04:10:01;;;;;;;41.18;22.13;;;;;;;7.14;100.00;101338.05;10378965;83;98799;-81
2021/03/31 04:25:13;;;;;;;58.65;30.65;;;;;;;6.86;100.00;101336.14;10369817;83;98913;-82
2021/03/31 04:40:20;;;;;;;32.38;18.45;;;;;;;6.71;100.00;101344.36;10350634;83;98721;-80
2021/03/31 04:55:25;;;;;;;427.35;199.40;;;;;;;6.59;100.00;101343.27;10430781;82;99493;-81
2021/03/31 05:10:29;;;;;;;66.73;32.37;;;;;;;6.44;100.00;101333.19;10462018;83;99040;-82
2021/03/31 05:25:34;;;;;;;65.37;31.65;;;;;;;6.28;100.00;101333.17;10397985;83;98876;-81
2021/03/31 05:40:40;;;;;;;67.55;32.53;;;;;;;6.27;100.00;101313.27;10419515;83;98863;-75
2021/03/31 05:55:44;;;;;;;56.70;28.75;;;;;;;6.61;100.00;101328.36;10464090;83;98919;-72
2021/03/31 06:10:49;;;;;;;67.97;34.30;;;;;;;7.22;100.00;101316.27;10442380;83;99170;-84
2021/03/31 06:25:57;;;;;;;125.20;55.35;;;;;;;7.98;100.00;101323.12;10475198;83;98883;-75
2021/03/31 06:41:14;;;;;;;78.77;39.63;;;;;;;9.04;100.00;101313.95;10230789;85;99086;-74
2021/03/31 06:56:28;;;;;;;49.45;24.80;;;;;;;10.13;100.00;101310.52;10195380;85;98904;-72
2021/03/31 07:11:42;;;;;;;30.27;17.92;;;;;;;11.60;100.00;101306.95;10218181;83;99015;-71
2021/03/31 07:26:48;;;;;;;28.12;12.18;;;;;;;13.27;100.00;101313.03;10244686;85;99039;-72
2021/03/31 07:41:54;;;;;;;13.37;6.90;;;;;;;14.24;100.00;101315.87;10340030;85;99115;-71
2021/03/31 07:56:59;;;;;;;16.70;6.83;;;;;;;15.97;79.28;101314.80;10324705;85;98867;-72
2021/03/31 08:12:06;;;;;;;14.15;6.50;;;;;;;15.97;79.28;101314.80;10329586;84;98652;-73
2021/03/31 08:27:13;;;;;;;11.93;6.57;;;;;;;15.98;67.72;101319.59;10252074;85;98717;-72
2021/03/31 08:42:19;;;;;;;11.15;5.90;;;;;;;16.88;65.83;101291.95;10313656;83;98715;-71
2021/03/31 08:57:25;;;;;;;33.30;14.87;;;;;;;17.04;59.67;101274.06;10305437;84;98723;-75
2021/03/31 09:12:31;;;;;;;14.85;8.70;;;;;;;18.35;58.74;101267.78;10340429;84;98836;-71
2021/03/31 09:27:37;;;;;;;10.77;5.67;;;;;;;18.69;53.94;101258.05;10439424;83;98674;-71
2021/03/31 09:42:43;;;;;;;10.35;5.90;;;;;;;19.65;50.89;101255.61;10406697;83;98715;-70
2021/03/31 09:57:50;;;;;;;12.37;5.50;;;;;;;19.95;49.31;101238.90;10414048;83;98714;-70
2021/03/31 10:13:04;;;;;;;10.63;5.53;;;;;;;20.34;47.65;101227.84;10334409;83;98634;-77
2021/03/31 10:28:15;;;;;;;7.93;5.27;;;;;;;20.94;46.89;101210.73;10335275;83;98716;-76
2021/03/31 10:58:53;;;;;;;11.48;5.67;;;;;;;21.49;43.97;101190.48;10452921;82;98438;-76
2021/03/31 11:13:58;;;;;;;4.97;3.53;;;;;;;22.18;41.48;101167.35;10428438;83;98653;-73
2021/03/31 11:29:03;;;;;;;8.88;3.87;;;;;;;22.87;40.16;101159.72;10379364;83;98351;-76
2021/03/31 11:44:09;;;;;;;8.08;4.58;;;;;;;23.13;39.97;101155.56;10359907;83;98516;-74
2021/03/31 11:59:14;;;;;;;9.30;4.70;;;;;;;23.16;38.65;101137.80;10440013;83;98949;-74
2021/03/31 12:14:18;;;;;;;5.97;3.65;;;;;;;23.27;37.06;101123.87;10442823;83;98412;-72
2021/03/31 12:29:23;;;;;;;10.10;4.83;;;;;;;23.36;37.50;101087.87;10362568;83;98552;-69
2021/03/31 12:44:27;;;;;;;10.45;7.33;;;;;;;23.22;36.40;101075.46;10142183;86;98690;-72
2021/03/31 12:59:32;;;;;;;6.22;4.25;;;;;;;23.65;36.43;101054.26;9949220;87;98672;-74
2021/03/31 13:14:59;;;;;;;11.27;5.93;;;;;;;24.51;36.11;101042.74;9902432;86;98294;-73
2021/03/31 13:30:08;;;;;;;6.53;4.53;;;;;;;24.89;35.28;101029.98;10360507;83;98560;-74
2021/03/31 13:45:13;;;;;;;8.50;5.00;;;;;;;24.72;32.87;101005.48;10428591;83;98483;-71
2021/03/31 14:00:24;;;;;;;7.37;4.78;;;;;;;25.29;32.38;100989.23;10232668;85;98562;-73
2021/03/31 14:15:28;;;;;;;13.05;6.97;;;;;;;28.27;32.17;100973.95;10271744;85;98505;-81
2021/03/31 14:30:35;;;;;;;10.33;5.87;;;;;;;35.46;27.25;100937.12;10287297;84;98743;-81
2021/03/31 14:45:41;;;;;;;12.43;5.43;;;;;;;28.84;28.10;100908.98;10316106;82;98666;-81
2021/03/31 15:00:48;;;;;;;11.73;4.37;;;;;;;26.86;32.09;100881.92;10465604;82;98704;-67
2021/03/31 15:15:53;;;;;;;10.23;6.63;;;;;;;33.98;30.95;100880.05;10419965;82;98889;-77
2021/03/31 15:31:00;;;;;;;9.85;6.92;;;;;;;35.93;26.95;100874.72;10430827;83;98694;-77
2021/03/31 15:46:06;;;;;;;41.40;25.93;;;;;;;28.78;28.54;100854.07;10366387;83;98508;-77
2021/03/31 16:01:13;;;;;;;11.30;6.22;;;;;;;33.21;29.38;100842.67;10393832;81;98830;-77
2021/03/31 16:16:18;;;;;;;16.25;7.78;;;;;;;27.97;32.60;100821.75;10369666;82;98772;-72
2021/03/31 16:31:26;;;;;;;16.73;11.03;;;;;;;33.28;28.48;100824.20;10405912;83;98738;-72
2021/03/31 16:46:30;;;;;;;19.55;10.03;;;;;;;28.82;29.53;100804.47;10445154;83;98876;-73
2021/03/31 17:01:35;;;;;;;298.25;108.30;;;;;;;24.20;34.23;100783.43;10409415;83;98887;-72
2021/03/31 17:16:42;;;;;;;326.73;103.20;;;;;;;22.63;37.74;100777.33;10435585;83;99204;-73
2021/03/31 17:31:46;;;;;;;161.80;65.37;;;;;;;20.75;40.80;100782.36;10436593;83;99192;-72
2021/03/31 17:46:50;;;;;;;229.70;86.00;;;;;;;19.09;41.93;100768.48;10436223;83;98966;-79
2021/03/31 18:01:56;;;;;;;457.38;169.80;;;;;;;18.20;44.28;100764.89;10405481;83;99018;-79
2021/03/31 18:17:04;;;;;;;449.32;144.90;;;;;;;17.04;47.03;100775.78;10430075;82;99272;-78
2021/03/31 18:32:11;;;;;;;326.95;117.82;;;;;;;16.12;49.01;100765.15;10402099;83;99160;-78
2021/03/31 18:47:17;;;;;;;394.03;125.57;;;;;;;15.33;51.57;100754.62;10418150;83;100168;-77
2021/03/31 19:02:21;;;;;;;243.63;76.55;;;;;;;14.73;53.96;100743.44;10457996;80;99353;-79
2021/03/31 19:17:27;;;;;;;267.82;83.22;;;;;;;14.13;56.59;100743.43;10413364;83;99671;-78
2021/03/31 19:32:33;;;;;;;311.12;93.85;;;;;;;13.58;59.28;100731.89;10382867;83;99034;-79
2021/03/31 19:47:37;;;;;;;229.80;69.30;;;;;;;13.17;60.85;100722.52;10373247;83;99073;-79
2021/03/31 20:02:42;;;;;;;150.10;53.42;;;;;;;12.61;62.89;100702.54;10435872;83;99030;-80
2021/03/31 20:17:51;;;;;;;172.87;63.85;;;;;;;12.18;63.53;100692.75;10446068;83;99027;-79
2021/03/31 20:32:56;;;;;;;188.03;72.80;;;;;;;11.59;66.21;100684.64;10290052;83;99119;-79
2021/03/31 20:48:00;;;;;;;85.42;36.25;;;;;;;11.24;68.89;100664.83;10196750;84;99054;-79
2021/03/31 21:03:04;;;;;;;104.47;40.52;;;;;;;10.79;70.86;100647.57;10198167;84;99350;-79
2021/03/31 21:18:10;;;;;;;89.22;37.93;;;;;;;10.32;72.79;100649.69;10206239;84;99487;-78
2021/03/31 21:33:14;;;;;;;64.30;29.23;;;;;;;10.08;74.60;100628.43;10284868;83;99087;-80
2021/03/31 21:48:18;;;;;;;51.60;23.85;;;;;;;9.90;75.98;100632.53;10354811;83;98648;-79
2021/03/31 22:03:23;;;;;;;48.95;21.85;;;;;;;9.49;77.47;100624.36;10365358;83;98621;-79
2021/03/31 22:18:28;;;;;;;229.20;66.00;;;;;;;9.15;78.69;100613.87;10376157;83;98810;-78
2021/03/31 22:33:33;;;;;;;85.75;38.08;;;;;;;8.97;79.90;100604.33;10371010;83;98874;-79
2021/03/31 22:48:38;;;;;;;215.75;84.25;;;;;;;8.53;81.44;100608.53;10354612;83;98950;-79
2021/03/31 23:03:43;;;;;;;166.85;66.37;;;;;;;8.39;83.30;100589.41;10355455;83;98745;-79
2021/03/31 23:18:47;;;;;;;88.15;40.70;;;;;;;8.37;84.62;100579.56;10362550;83;98651;-79
2021/03/31 23:33:54;;;;;;;182.02;77.12;;;;;;;8.11;86.58;100568.41;10420985;83;98446;-78
2021/03/31 23:49:00;;;;;;;264.52;98.30;;;;;;;7.92;86.76;100544.11;10348629;83;98786;-80
